Time;durP1;ratioP1;P1;durP2;ratioP2;P2;SDS_P1;SDS_P2;PMS_P1;PMS_P2;Temp;Humidity;BMP_temperature;BMP_pressure;BME280_temperature;BME280_humidity;BME280_pressure;Samples;Min_cycle;Max_cycle;Signal;HPM_P1;HPM_P2
2022/10/01 00:00:59;;;;;;;32.97;22.20;;;;;;;7.88;69.82;100609.93;1584422;88;21049;-74
2022/10/01 00:03:46;;;;;;;30.37;21.30;;;;;;;7.86;69.83;100605.66;1583870;88;22286;-73
2022/10/01 00:06:31;;;;;;;31.23;21.23;;;;;;;7.83;69.88;100605.67;1608696;88;21617;-73
2022/10/01 00:09:16;;;;;;;32.13;22.40;;;;;;;7.80;69.90;100603.97;1606712;88;21100;-73
2022/10/01 00:12:01;;;;;;;30.20;21.15;;;;;;;7.77;69.98;100603.16;1580936;88;21097;-73
2022/10/01 00:14:47;;;;;;;30.43;20.88;;;;;;;7.76;70.00;100606.16;1595677;88;21093;-73
2022/10/01 00:17:33;;;;;;;29.18;20.70;;;;;;;7.74;70.03;100604.45;1577814;88;21150;-73
2022/10/01 00:20:19;;;;;;;26.02;19.55;;;;;;;7.73;70.04;100607.89;1602426;88;21402;-73
2022/10/01 00:23:03;;;;;;;29.70;19.80;;;;;;;7.70;70.07;100610.05;1605868;88;21127;-73
2022/10/01 00:25:51;;;;;;;27.70;21.75;;;;;;;7.68;70.11;100609.20;1610766;87;21072;-73
2022/10/01 00:28:35;;;;;;;31.45;20.90;;;;;;;7.63;70.11;100600.21;1613787;87;21115;-73
2022/10/01 00:31:20;;;;;;;35.43;22.42;;;;;;;7.61;70.17;100599.36;1621289;87;21112;-73
2022/10/01 00:34:05;;;;;;;32.28;21.37;;;;;;;7.61;70.18;100599.36;1607211;87;21140;-73
2022/10/01 00:36:51;;;;;;;32.60;21.33;;;;;;;7.60;70.20;100600.66;1620564;87;21052;-73
2022/10/01 00:39:37;;;;;;;30.87;22.60;;;;;;;7.61;70.28;100594.64;1633858;87;21496;-73
2022/10/01 00:42:29;;;;;;;32.93;20.88;;;;;;;7.63;70.30;100589.92;1608884;87;21124;-73
2022/10/01 00:45:15;;;;;;;33.02;20.23;;;;;;;7.65;70.38;100588.63;1628736;87;21085;-74
2022/10/01 00:48:00;;;;;;;28.10;20.48;;;;;;;7.69;70.42;100592.89;1615197;87;22377;-73
2022/10/01 00:50:47;;;;;;;28.98;21.55;;;;;;;7.71;70.43;100597.61;1596883;87;21091;-74
2022/10/01 00:53:33;;;;;;;31.97;23.30;;;;;;;7.73;70.51;100599.73;1615540;87;21084;-74
2022/10/01 00:56:18;;;;;;;32.15;22.80;;;;;;;7.77;70.56;100601.44;1625150;87;21390;-73
2022/10/01 00:59:05;;;;;;;34.18;24.98;;;;;;;7.81;70.61;100596.67;1635432;87;21556;-73
2022/10/01 01:01:51;;;;;;;33.02;23.77;;;;;;;7.84;70.64;100596.66;1605202;87;21531;-74
2022/10/01 01:04:39;;;;;;;29.80;21.70;;;;;;;7.88;70.69;100598.34;1619089;86;21124;-73
2022/10/01 01:07:26;;;;;;;34.03;22.10;;;;;;;7.90;70.71;100589.33;1609040;87;21045;-74
2022/10/01 01:10:14;;;;;;;32.67;23.38;;;;;;;7.90;70.72;100594.05;1619400;87;21567;-74
2022/10/01 01:13:13;;;;;;;28.95;21.50;;;;;;;7.91;70.76;100587.17;1607840;87;21064;-74
2022/10/01 01:16:21;;;;;;;33.73;21.95;;;;;;;7.91;70.80;100591.89;1634857;87;21088;-74
2022/10/01 01:19:29;;;;;;;30.35;21.50;;;;;;;7.94;70.84;100591.02;1584609;87;21116;-74
2022/10/01 01:22:16;;;;;;;28.90;21.68;;;;;;;7.96;70.87;100590.58;1627286;87;21143;-73
2022/10/01 01:25:09;;;;;;;31.45;22.17;;;;;;;7.98;70.92;100594.86;1608659;87;21076;-75
2022/10/01 01:28:16;;;;;;;34.78;22.48;;;;;;;8.01;70.96;100585.41;1606451;87;21028;-75
2022/10/01 01:31:06;;;;;;;31.87;21.60;;;;;;;8.04;71.00;100581.53;1600101;87;21523;-75
2022/10/01 01:33:55;;;;;;;29.00;21.97;;;;;;;8.07;71.04;100580.22;1599592;87;21033;-74
2022/10/01 01:36:45;;;;;;;33.85;22.90;;;;;;;8.10;71.06;100575.05;1601637;87;21464;-74
2022/10/01 01:39:32;;;;;;;32.28;22.27;;;;;;;8.11;71.08;100572.47;1626180;87;20984;-74
2022/10/01 01:42:34;;;;;;;31.57;23.47;;;;;;;8.14;71.11;100570.30;1616275;87;21068;-74
2022/10/01 01:45:23;;;;;;;31.87;24.35;;;;;;;8.15;71.18;100572.02;1625536;87;21060;-74
2022/10/01 01:48:12;;;;;;;36.68;25.10;;;;;;;8.15;71.13;100567.72;1636298;87;21077;-74
2022/10/01 01:51:24;;;;;;;33.83;23.50;;;;;;;8.15;71.21;100567.72;1614962;87;21104;-74
2022/10/01 01:54:10;;;;;;;34.20;23.95;;;;;;;8.15;71.25;100566.43;1607537;87;21064;-74
2022/10/01 01:56:57;;;;;;;28.98;22.55;;;;;;;8.15;71.32;100571.58;1619304;87;21159;-74
2022/10/01 01:59:42;;;;;;;31.25;23.27;;;;;;;8.15;71.34;100569.01;1605760;87;21513;-74
2022/10/01 02:02:32;;;;;;;33.83;23.67;;;;;;;8.14;71.40;100556.99;1609336;87;21443;-74
2022/10/01 02:05:27;;;;;;;34.63;24.40;;;;;;;8.16;71.39;100558.27;1619761;87;21128;-74
2022/10/01 02:08:31;;;;;;;;;;;;;;;8.15;71.41;100557.42;1619452;87;21503;-74
2022/10/01 02:11:28;;;;;;;31.57;22.20;;;;;;;8.14;71.81;100550.98;1634005;87;20211;-74
2022/10/01 02:14:43;;;;;;;37.45;24.77;;;;;;;8.12;71.54;100543.27;1607995;87;21004;-74
2022/10/01 02:17:45;;;;;;;36.50;25.70;;;;;;;8.12;71.58;100543.70;1629368;87;21081;-74
2022/10/01 02:20:47;;;;;;;36.23;25.17;;;;;;;8.10;71.63;100541.58;1608706;87;21101;-74
2022/10/01 02:23:37;;;;;;;33.10;24.60;;;;;;;8.07;71.67;100536.02;1620047;87;21104;-74
2022/10/01 02:26:24;;;;;;;39.65;25.55;;;;;;;8.07;71.68;100540.31;1592429;88;21108;-74
2022/10/01 02:29:13;;;;;;;35.05;26.35;;;;;;;8.07;71.72;100539.88;1618310;88;20970;-74
2022/10/01 02:32:00;;;;;;;31.93;25.43;;;;;;;8.06;71.72;100534.30;1606046;88;21096;-74
2022/10/01 02:34:48;;;;;;;34.88;25.92;;;;;;;8.05;71.81;100533.88;1586421;88;21092;-74
2022/10/01 02:37:35;;;;;;;36.80;24.85;;;;;;;8.04;71.82;100528.31;1603508;88;21620;-74
2022/10/01 02:40:25;;;;;;;34.35;24.40;;;;;;;8.03;71.85;100527.89;1617864;88;21074;-74
2022/10/01 02:43:33;;;;;;;33.67;24.20;;;;;;;8.04;71.89;100524.87;1594263;88;21161;-75
2022/10/01 02:46:35;;;;;;;37.73;24.47;;;;;;;8.03;71.94;100517.59;1584500;88;21129;-74
2022/10/01 02:49:21;;;;;;;33.92;24.95;;;;;;;8.00;71.95;100521.91;1584369;88;21093;-74
2022/10/01 02:52:30;;;;;;;34.38;25.12;;;;;;;8.00;72.01;100524.05;1617619;88;21088;-74
2022/10/01 02:55:19;;;;;;;34.48;24.63;;;;;;;7.98;72.00;100510.33;1595946;88;21133;-74
2022/10/01 02:58:06;;;;;;;35.63;25.00;;;;;;;7.97;72.09;100499.17;1580348;88;21089;-74
2022/10/01 03:00:51;;;;;;;34.67;24.55;;;;;;;7.96;72.12;100497.47;1588981;88;21057;-74
2022/10/01 03:03:40;;;;;;;34.33;24.90;;;;;;;7.97;72.15;100502.18;1595316;88;21060;-74
2022/10/01 03:06:24;;;;;;;32.60;24.77;;;;;;;7.96;72.20;100498.75;1592065;88;21127;-74
2022/10/01 03:09:09;;;;;;;30.55;23.30;;;;;;;7.97;72.21;100500.89;1588914;88;21019;-74
2022/10/01 03:11:54;;;;;;;31.50;24.50;;;;;;;7.93;72.22;100506.50;1589565;88;21145;-74
2022/10/01 03:14:39;;;;;;;30.68;23.22;;;;;;;7.93;72.28;100503.92;1605433;88;21552;-74
2022/10/01 03:17:25;;;;;;;31.12;23.12;;;;;;;7.92;72.32;100505.22;1592058;88;21489;-74
2022/10/01 03:20:11;;;;;;;33.35;23.65;;;;;;;7.92;72.33;100489.34;1606661;88;21089;-74
2022/10/01 03:22:55;;;;;;;34.50;24.45;;;;;;;7.91;72.37;100488.92;1596192;88;21584;-74
2022/10/01 03:25:40;;;;;;;36.50;24.55;;;;;;;7.90;72.44;100484.63;1581311;88;21512;-74
2022/10/01 03:28:26;;;;;;;31.87;23.80;;;;;;;7.88;72.41;100486.36;1597090;88;21200;-74
2022/10/01 03:31:11;;;;;;;34.15;25.10;;;;;;;7.88;72.46;100484.22;1594157;88;21171;-74
2022/10/01 03:33:59;;;;;;;32.93;23.85;;;;;;;7.86;72.49;100484.23;1619492;86;21049;-74
2022/10/01 03:36:43;;;;;;;32.95;23.32;;;;;;;7.85;72.51;100481.23;1598698;88;21557;-74
2022/10/01 03:39:28;;;;;;;31.90;24.27;;;;;;;7.85;72.56;100477.80;1600943;88;21647;-74
2022/10/01 03:42:14;;;;;;;29.40;23.12;;;;;;;7.82;72.60;100484.27;1606318;88;21141;-74
2022/10/01 03:44:59;;;;;;;36.03;25.40;;;;;;;7.81;72.66;100487.70;1589500;88;21092;-74
2022/10/01 03:47:53;;;;;;;34.65;24.65;;;;;;;7.79;72.68;100478.73;1609414;88;21093;-74
2022/10/01 03:50:38;;;;;;;33.78;25.48;;;;;;;7.79;72.69;100477.87;1600570;88;21117;-74
2022/10/01 03:53:26;;;;;;;31.12;24.32;;;;;;;7.79;72.73;100483.03;1588876;88;21136;-74
2022/10/01 03:56:11;;;;;;;37.73;25.75;;;;;;;7.77;72.73;100479.61;1581871;88;21061;-74
2022/10/01 03:58:56;;;;;;;37.10;25.55;;;;;;;7.75;72.84;100479.62;1606027;88;21085;-74
2022/10/01 04:01:41;;;;;;;32.28;24.32;;;;;;;7.75;72.86;100482.19;1603239;88;21156;-74
2022/10/01 04:04:27;;;;;;;31.37;24.37;;;;;;;7.74;72.89;100475.77;1595013;88;21117;-74
2022/10/01 04:07:12;;;;;;;34.27;24.32;;;;;;;7.72;72.95;100469.34;1589653;88;21663;-74
2022/10/01 04:09:58;;;;;;;34.23;25.00;;;;;;;7.71;72.91;100474.07;1606944;88;21054;-74
2022/10/01 04:12:43;;;;;;;32.10;24.12;;;;;;;7.70;72.98;100470.22;1610899;88;21164;-74
2022/10/01 04:15:28;;;;;;;35.05;24.77;;;;;;;7.69;72.99;100473.23;1583222;88;21117;-74
2022/10/01 04:18:15;;;;;;;32.13;24.37;;;;;;;7.68;73.04;100474.52;1567513;89;21688;-74
2022/10/01 04:21:00;;;;;;;34.55;24.23;;;;;;;7.67;73.05;100474.95;1591732;88;21094;-74
2022/10/01 04:23:45;;;;;;;30.65;22.98;;;;;;;7.66;73.10;100474.97;1602739;88;21041;-75
2022/10/01 04:26:30;;;;;;;33.00;24.47;;;;;;;7.62;73.11;100476.27;1627037;87;21082;-75
2022/10/01 04:29:15;;;;;;;32.28;23.55;;;;;;;7.61;73.20;100468.56;1633084;87;21751;-76
2022/10/01 04:32:02;;;;;;;33.28;24.43;;;;;;;7.60;73.20;100470.70;1645970;86;21088;-75
2022/10/01 04:34:53;;;;;;;;;;;;;;;7.59;73.23;100471.14;1650654;86;21072;-75
2022/10/01 04:37:38;;;;;;;28.12;22.42;;;;;;;7.56;73.54;100471.59;1636293;86;20219;-75
2022/10/01 04:40:22;;;;;;;30.23;23.27;;;;;;;7.54;73.30;100473.31;1637473;86;21101;-75
2022/10/01 04:43:10;;;;;;;34.60;23.27;;;;;;;7.52;73.27;100478.47;1645482;86;21036;-75
2022/10/01 04:45:55;;;;;;;35.33;24.55;;;;;;;7.50;73.29;100489.63;1637775;86;21540;-75
2022/10/01 04:48:40;;;;;;;34.92;25.17;;;;;;;7.49;73.33;100482.78;1651663;86;21623;-75
2022/10/01 04:51:25;;;;;;;32.08;23.38;;;;;;;7.45;73.36;100476.80;1642590;85;21119;-75
2022/10/01 04:54:10;;;;;;;32.08;24.00;;;;;;;7.46;73.41;100474.64;1653266;86;21081;-75
2022/10/01 04:56:59;;;;;;;30.48;23.10;;;;;;;7.46;73.44;100474.64;1636483;85;21678;-75
2022/10/01 04:59:44;;;;;;;30.88;23.12;;;;;;;7.46;73.47;100475.93;1652271;86;21092;-75
2022/10/01 05:02:29;;;;;;;29.92;23.00;;;;;;;7.47;73.49;100476.78;1648307;84;21085;-75
2022/10/01 05:05:16;;;;;;;37.67;24.55;;;;;;;7.48;73.50;100479.35;1643156;86;22176;-75
2022/10/01 05:08:01;;;;;;;;;;;;;;;7.47;73.53;100480.64;1649480;86;21060;-74
2022/10/01 05:10:46;;;;;;;28.17;22.07;;;;;;;7.48;73.80;100481.06;1649537;86;20215;-74
2022/10/01 05:13:32;;;;;;;31.12;23.45;;;;;;;7.47;73.60;100483.22;1650415;86;21062;-74
2022/10/01 05:16:17;;;;;;;30.00;22.17;;;;;;;7.48;73.58;100481.92;1644125;86;21517;-74
2022/10/01 05:19:02;;;;;;;31.48;23.18;;;;;;;7.49;73.58;100478.48;1649736;86;21140;-75
2022/10/01 05:21:47;;;;;;;31.80;22.27;;;;;;;7.52;73.64;100477.62;1645378;86;21033;-75
2022/10/01 05:24:33;;;;;;;32.20;23.95;;;;;;;7.52;73.65;100475.90;1648981;86;21085;-74
2022/10/01 05:27:19;;;;;;;30.65;22.93;;;;;;;7.56;73.68;100471.59;1641867;86;21574;-74
2022/10/01 05:30:05;;;;;;;33.95;23.22;;;;;;;7.58;73.74;100466.86;1644862;86;21572;-74
2022/10/01 05:32:59;;;;;;;34.85;23.52;;;;;;;7.63;73.77;100467.69;1652104;86;21013;-75
2022/10/01 05:35:44;;;;;;;31.12;22.87;;;;;;;7.66;73.80;100462.95;1649192;86;21078;-74
2022/10/01 05:38:30;;;;;;;29.27;22.20;;;;;;;7.70;73.84;100458.64;1642711;86;21101;-74
2022/10/01 05:41:15;;;;;;;30.95;23.22;;;;;;;7.73;73.84;100451.75;1646785;86;20962;-74
2022/10/01 05:44:01;;;;;;;37.88;23.87;;;;;;;7.74;73.88;100450.89;1643174;85;21105;-74
2022/10/01 05:46:46;;;;;;;31.17;22.25;;;;;;;7.78;73.87;100455.58;1650143;86;21736;-74
2022/10/01 05:49:32;;;;;;;31.50;22.98;;;;;;;7.82;73.99;100452.94;1643440;86;21085;-74
2022/10/01 05:52:17;;;;;;;31.90;23.23;;;;;;;7.95;74.10;100450.70;1646756;86;21077;-75
2022/10/01 05:55:03;;;;;;;35.48;22.82;;;;;;;8.15;74.19;100447.96;1645280;86;21494;-74
2022/10/01 05:58:00;;;;;;;30.10;22.15;;;;;;;8.41;74.31;100447.72;1650282;86;21518;-74
2022/10/01 06:00:46;;;;;;;29.75;22.48;;;;;;;8.78;74.36;100446.05;1656664;82;21046;-74
2022/10/01 06:03:31;;;;;;;28.67;22.45;;;;;;;9.31;74.50;100450.52;1633497;84;818199;-74
2022/10/01 06:06:26;;;;;;;29.23;20.07;;;;;;;9.89;74.46;100442.73;1635579;86;21017;-74
2022/10/01 06:09:11;;;;;;;25.25;19.87;;;;;;;10.56;74.26;100449.77;1633044;86;21107;-75
2022/10/01 06:11:57;;;;;;;25.40;19.82;;;;;;;11.19;74.20;100443.73;1639129;86;21141;-74
2022/10/01 06:14:42;;;;;;;21.68;19.17;;;;;;;11.75;74.22;100444.63;1633880;86;21108;-74
2022/10/01 06:17:27;;;;;;;22.10;18.70;;;;;;;12.33;74.12;100438.88;1645355;85;28248;-74
2022/10/01 06:20:18;;;;;;;22.48;19.00;;;;;;;12.86;74.18;100440.45;1642919;85;21096;-75
2022/10/01 06:23:06;;;;;;;22.93;18.67;;;;;;;13.46;74.06;100436.52;1642434;86;21031;-75
2022/10/01 06:25:50;;;;;;;18.70;16.70;;;;;;;14.14;73.93;100444.25;1639371;87;21112;-78
2022/10/01 06:28:36;;;;;;;18.90;16.82;;;;;;;14.69;73.90;100442.36;1627473;85;21159;-78
2022/10/01 06:31:21;;;;;;;17.02;15.08;;;;;;;15.13;73.66;100434.20;1635884;87;21109;-77
2022/10/01 06:34:07;;;;;;;20.57;16.20;;;;;;;15.46;73.79;100434.68;1635574;87;21527;-76
2022/10/01 06:36:52;;;;;;;17.40;15.28;;;;;;;15.83;73.86;100437.99;1622188;87;21133;-78
2022/10/01 06:39:37;;;;;;;18.23;15.48;;;;;;;16.22;73.71;100428.50;1601678;88;21042;-76
2022/10/01 06:42:22;;;;;;;15.18;13.60;;;;;;;16.69;73.59;100419.08;1635496;87;21504;-77
2022/10/01 06:45:09;;;;;;;15.63;13.95;;;;;;;17.11;73.37;100419.38;1630246;85;21642;-76
2022/10/01 06:48:04;;;;;;;16.42;13.83;;;;;;;17.52;73.37;100413.49;1637278;86;21034;-76
2022/10/01 06:50:51;;;;;;;17.10;15.25;;;;;;;17.91;73.17;100419.03;1633378;87;21334;-76
2022/10/01 06:53:36;;;;;;;16.02;14.43;;;;;;;18.33;72.79;100416.00;1601335;87;21101;-76
2022/10/01 06:56:22;;;;;;;15.32;13.70;;;;;;;18.70;72.67;100413.20;1596567;87;21120;-76
2022/10/01 06:59:07;;;;;;;15.03;13.48;;;;;;;19.01;72.46;100406.30;1630243;87;21175;-76
2022/10/01 07:01:52;;;;;;;15.78;14.13;;;;;;;19.44;72.46;100407.38;1627868;85;21638;-76
2022/10/01 07:04:37;;;;;;;14.65;13.25;;;;;;;19.86;72.08;100401.95;1639190;85;21597;-76
2022/10/01 07:07:23;;;;;;;15.30;12.98;;;;;;;20.22;71.83;100400.27;1637804;86;21487;-76
2022/10/01 07:10:10;;;;;;;16.48;13.98;;;;;;;20.46;71.45;100399.66;1641914;85;21079;-76
2022/10/01 07:12:55;;;;;;;14.58;13.10;;;;;;;20.48;71.58;100393.84;1637401;86;21039;-77
2022/10/01 07:15:40;;;;;;;15.03;13.13;;;;;;;20.79;71.28;100390.66;1614180;87;21691;-77
2022/10/01 07:18:25;;;;;;;13.62;12.28;;;;;;;21.07;71.14;100387.98;1635248;86;21115;-77
2022/10/01 07:21:10;;;;;;;13.27;11.93;;;;;;;21.16;70.76;100387.86;1638335;87;21064;-77
2022/10/01 07:23:55;;;;;;;12.40;11.18;;;;;;;21.28;70.74;100383.64;1636606;86;21109;-77
2022/10/01 07:26:41;;;;;;;13.55;12.18;;;;;;;21.62;70.38;100387.07;1637388;87;21521;-77
2022/10/01 07:29:26;;;;;;;14.30;10.82;;;;;;;21.67;69.95;100378.88;1592685;88;21176;-77
2022/10/01 07:32:11;;;;;;;12.68;11.40;;;;;;;21.62;69.87;100380.49;1625893;87;21444;-77
2022/10/01 07:34:56;;;;;;;12.35;11.12;;;;;;;21.89;69.35;100370.38;1625494;87;21076;-77
2022/10/01 07:37:41;;;;;;;17.03;11.13;;;;;;;21.92;68.96;100368.38;1632904;87;21608;-77
2022/10/01 07:40:27;;;;;;;12.23;11.03;;;;;;;21.55;68.69;100373.09;1602339;86;21443;-77
2022/10/01 07:43:13;;;;;;;12.78;10.55;;;;;;;21.23;68.76;100358.95;1624222;87;21158;-76
2022/10/01 07:45:58;;;;;;;13.22;10.32;;;;;;;21.07;68.64;100356.42;1628248;86;28309;-76
2022/10/01 07:48:45;;;;;;;11.68;9.95;;;;;;;21.14;68.25;100357.72;1606819;88;21140;-76
2022/10/01 07:51:30;;;;;;;13.00;10.53;;;;;;;21.18;67.91;100348.33;1609325;88;21100;-76
2022/10/01 07:54:15;;;;;;;14.00;10.18;;;;;;;21.54;67.42;100345.94;1634345;86;21135;-77
2022/10/01 07:57:00;;;;;;;10.78;9.80;;;;;;;21.73;66.96;100349.52;1640005;87;21125;-77
2022/10/01 07:59:46;;;;;;;10.45;9.55;;;;;;;22.22;66.90;100348.38;1634843;87;20992;-77
2022/10/01 08:02:31;;;;;;;11.90;10.00;;;;;;;22.74;66.47;100342.94;1632597;87;21033;-76
2022/10/01 08:05:19;;;;;;;10.63;9.63;;;;;;;23.25;65.88;100334.03;1641220;85;21099;-76
2022/10/01 08:08:07;;;;;;;10.78;9.80;;;;;;;23.74;65.67;100339.17;1638279;87;20949;-76
2022/10/01 08:10:52;;;;;;;11.20;10.15;;;;;;;23.94;65.17;100338.48;1592285;89;21093;-77
2022/10/01 08:13:37;;;;;;;10.23;9.18;;;;;;;23.99;64.81;100332.84;1621706;86;21090;-77
2022/10/01 08:16:22;;;;;;;10.15;8.80;;;;;;;23.93;64.74;100326.70;1635608;86;21000;-75
2022/10/01 08:19:07;;;;;;;10.90;9.58;;;;;;;23.47;64.24;100313.48;1593943;89;21592;-74
2022/10/01 08:21:52;;;;;;;10.18;9.25;;;;;;;22.72;64.31;100317.16;1630249;87;21090;-74
2022/10/01 08:24:38;;;;;;;12.05;9.20;;;;;;;21.93;63.83;100314.78;1626258;87;21102;-74
2022/10/01 08:27:26;;;;;;;10.58;9.53;;;;;;;21.16;63.57;100306.34;1632391;86;21115;-74
2022/10/01 08:30:11;;;;;;;12.45;9.65;;;;;;;20.42;63.39;100300.97;1634662;87;21143;-74
2022/10/01 08:32:58;;;;;;;9.63;8.73;;;;;;;19.83;63.24;100287.05;1638209;87;21120;-74
2022/10/01 08:35:44;;;;;;;11.05;9.38;;;;;;;19.32;62.88;100290.92;1623746;86;21358;-74
2022/10/01 08:38:29;;;;;;;14.30;10.28;;;;;;;18.85;62.58;100283.14;1636905;87;21032;-74
2022/10/01 08:41:37;;;;;;;10.55;9.53;;;;;;;18.43;62.34;100283.23;1634045;87;21553;-74
2022/10/01 08:44:42;;;;;;;13.60;9.08;;;;;;;18.09;62.08;100283.35;1625717;87;21139;-74
2022/10/01 08:47:34;;;;;;;10.43;9.35;;;;;;;17.69;61.79;100288.47;1631971;87;20926;-74
2022/10/01 08:50:45;;;;;;;10.65;9.58;;;;;;;17.36;61.54;100289.22;1636035;85;20936;-74
2022/10/01 08:53:42;;;;;;;13.30;9.78;;;;;;;17.11;61.24;100290.05;1633364;86;21123;-74
2022/10/01 08:56:45;;;;;;;10.55;9.40;;;;;;;16.77;60.98;100279.89;1634939;87;21091;-74
2022/10/01 08:59:46;;;;;;;10.70;9.60;;;;;;;16.53;60.99;100281.02;1633801;87;21099;-74
2022/10/01 09:02:40;;;;;;;10.80;9.68;;;;;;;16.33;60.81;100275.39;1639512;87;21064;-73
2022/10/01 09:06:03;;;;;;;13.78;9.48;;;;;;;16.16;60.72;100261.80;1634978;87;21564;-73
2022/10/01 09:09:08;;;;;;;10.50;9.43;;;;;;;16.05;60.66;100264.52;1592128;89;21097;-73
2022/10/01 09:12:32;;;;;;;12.10;9.93;;;;;;;15.95;60.55;100260.16;1632781;86;21674;-73
2022/10/01 09:15:37;;;;;;;11.85;9.98;;;;;;;15.84;60.45;100254.56;1618665;86;21538;-73
2022/10/01 09:18:56;;;;;;;13.85;9.50;;;;;;;15.70;60.45;100249.09;1622694;86;21017;-73
2022/10/01 09:22:03;;;;;;;13.18;10.48;;;;;;;15.61;60.47;100245.13;1620751;86;21007;-73
2022/10/01 09:25:15;;;;;;;12.05;9.45;;;;;;;15.56;60.36;100235.34;1627142;86;21085;-73
2022/10/01 09:28:13;;;;;;;12.50;8.90;;;;;;;15.55;60.43;100233.66;1633062;87;21103;-73
2022/10/01 09:31:36;;;;;;;13.48;9.38;;;;;;;15.58;60.39;100223.13;1599263;88;21092;-74
2022/10/01 09:34:30;;;;;;;10.23;9.23;;;;;;;15.57;60.23;100219.29;1610338;88;21132;-73
2022/10/01 09:37:26;;;;;;;11.38;9.13;;;;;;;15.54;60.29;100220.23;1631080;87;21081;-73
2022/10/01 09:40:37;;;;;;;9.85;8.83;;;;;;;15.53;60.20;100225.90;1643032;87;21051;-73
2022/10/01 09:43:28;;;;;;;9.93;8.98;;;;;;;15.53;60.26;100220.69;1595126;88;21609;-73
2022/10/01 09:46:16;;;;;;;9.65;8.75;;;;;;;15.54;60.26;100213.27;1636047;87;21101;-73
2022/10/01 09:49:11;;;;;;;11.03;8.28;;;;;;;15.57;60.34;100214.08;1623009;86;21072;-74
2022/10/01 09:52:07;;;;;;;10.15;8.65;;;;;;;15.54;60.28;100214.56;1614073;87;21073;-73
2022/10/01 09:55:23;;;;;;;9.75;7.75;;;;;;;15.53;60.30;100219.38;1609685;87;21080;-73
2022/10/01 09:58:19;;;;;;;;;;;;;;;15.47;60.26;100209.67;1606914;88;21105;-73
2022/10/01 10:01:13;;;;;;;10.25;8.58;;;;;;;15.40;60.46;100212.15;1599172;87;20225;-73
2022/10/01 10:03:57;;;;;;;11.30;8.68;;;;;;;15.35;60.29;100209.73;1608708;88;21123;-73
2022/10/01 10:06:43;;;;;;;10.70;7.97;;;;;;;15.30;60.34;100209.08;1605089;88;21104;-73
2022/10/01 10:09:32;;;;;;;8.50;7.53;;;;;;;15.32;60.45;100209.02;1607421;87;21055;-72
2022/10/01 10:12:28;;;;;;;10.40;8.05;;;;;;;15.37;60.46;100204.46;1589687;88;21167;-71
2022/10/01 10:15:20;;;;;;;;;;;;;;;15.41;60.46;100195.61;1603073;87;21038;-71
2022/10/01 10:18:16;;;;;;;9.15;7.15;;;;;;;15.51;60.75;100194.30;1594593;87;20200;-71
2022/10/01 10:21:15;;;;;;;9.15;6.80;;;;;;;15.62;60.53;100190.78;1589908;88;21077;-71
2022/10/01 10:24:08;;;;;;;8.15;7.12;;;;;;;15.75;60.63;100188.48;1605541;87;21015;-72
2022/10/01 10:26:57;;;;;;;8.83;7.92;;;;;;;15.87;60.61;100180.13;1608196;87;21547;-71
2022/10/01 10:29:42;;;;;;;7.00;6.30;;;;;;;15.94;60.48;100161.98;1610374;88;20969;-71
2022/10/01 10:32:28;;;;;;;6.83;6.12;;;;;;;15.97;60.52;100158.39;1606458;87;20956;-72
2022/10/01 10:35:17;;;;;;;7.30;6.10;;;;;;;16.04;60.64;100151.98;1609893;87;20956;-71
2022/10/01 10:38:02;;;;;;;6.15;5.65;;;;;;;16.10;60.65;100154.31;1607812;88;20985;-72
2022/10/01 10:40:47;;;;;;;6.22;5.53;;;;;;;16.12;60.61;100142.86;1605846;88;21535;-73
2022/10/01 10:43:35;;;;;;;7.30;5.78;;;;;;;16.11;60.64;100141.66;1594737;89;21088;-72
2022/10/01 10:46:28;;;;;;;5.78;5.17;;;;;;;16.13;60.65;100137.19;1599219;87;21167;-72
2022/10/01 10:49:28;;;;;;;5.53;5.03;;;;;;;16.12;60.65;100132.88;1606125;88;21159;-73
2022/10/01 10:52:35;;;;;;;7.50;5.05;;;;;;;16.11;60.70;100131.23;1600640;89;21127;-73
2022/10/01 10:55:29;;;;;;;5.42;4.70;;;;;;;16.10;60.58;100130.84;1603641;89;21496;-73
2022/10/01 10:58:15;;;;;;;6.60;5.08;;;;;;;16.09;60.71;100127.38;1606454;88;21659;-73
2022/10/01 11:01:10;;;;;;;4.75;4.33;;;;;;;16.13;60.71;100129.36;1606446;88;21092;-73
2022/10/01 11:03:59;;;;;;;5.55;4.10;;;;;;;16.16;60.71;100117.48;1606948;87;21051;-73
2022/10/01 11:06:56;;;;;;;4.85;4.22;;;;;;;16.19;60.65;100114.27;1603810;88;21543;-73
2022/10/01 11:09:56;;;;;;;6.10;4.67;;;;;;;16.19;60.62;100110.36;1604678;87;21116;-72
2022/10/01 11:13:08;;;;;;;5.78;4.78;;;;;;;16.20;60.61;100109.44;1606067;89;21076;-73
2022/10/01 11:16:31;;;;;;;5.90;4.40;;;;;;;16.22;60.55;100096.32;1608290;88;21128;-74
2022/10/01 11:19:54;;;;;;;5.65;4.53;;;;;;;16.27;60.68;100093.50;1601673;87;21977;-74
2022/10/01 11:23:06;;;;;;;4.50;4.10;;;;;;;16.32;60.61;100088.44;1603955;87;21052;-74
2022/10/01 11:26:15;;;;;;;4.97;4.47;;;;;;;16.34;60.57;100084.00;1602948;87;21132;-73
2022/10/01 11:29:17;;;;;;;5.40;4.90;;;;;;;16.34;60.48;100081.84;1601060;89;21100;-81
2022/10/01 11:32:40;;;;;;;5.25;4.75;;;;;;;16.35;60.56;100072.64;1603092;87;21143;-75
2022/10/01 11:35:55;;;;;;;4.80;4.33;;;;;;;16.37;60.52;100070.80;1605398;87;21152;-74
2022/10/01 11:39:03;;;;;;;4.35;3.95;;;;;;;16.38;60.56;100065.13;1605775;87;21036;-72
2022/10/01 11:42:14;;;;;;;4.83;4.42;;;;;;;16.38;60.53;100068.58;1603895;89;21120;-73
2022/10/01 11:45:10;;;;;;;4.58;4.10;;;;;;;16.37;60.46;100064.28;1607994;89;21152;-72
2022/10/01 11:48:00;;;;;;;14.87;5.30;;;;;;;16.35;60.46;100058.30;1606096;89;21148;-72
2022/10/01 11:50:48;;;;;;;5.85;5.35;;;;;;;16.33;60.50;100052.30;1606347;87;21119;-73
2022/10/01 11:53:38;;;;;;;5.08;4.67;;;;;;;16.33;60.46;100052.30;1606902;86;21064;-72
2022/10/01 11:59:53;;;;;;;7.55;5.85;;;;;;;16.28;60.47;100041.24;1586054;87;21099;-72
2022/10/01 12:02:55;;;;;;;6.05;4.85;;;;;;;16.29;60.47;100029.05;1607111;87;21100;-72
2022/10/01 12:05:41;;;;;;;5.45;3.80;;;;;;;16.30;60.49;100028.97;1608518;87;21099;-72
2022/10/01 12:08:33;;;;;;;5.37;3.10;;;;;;;16.34;60.50;100029.20;1605908;87;25715;-72
2022/10/01 12:11:23;;;;;;;5.37;3.90;;;;;;;16.38;60.49;100026.83;1607428;87;21128;-72
2022/10/01 12:14:18;;;;;;;3.47;3.17;;;;;;;16.40;60.44;100022.84;1606528;87;21103;-73
2022/10/01 12:17:21;;;;;;;3.02;2.80;;;;;;;16.38;60.36;100014.24;1607705;89;24079;-72
2022/10/01 12:20:26;;;;;;;3.55;3.08;;;;;;;16.36;60.39;100008.25;1601977;87;21351;-72
2022/10/01 12:23:16;;;;;;;4.83;2.85;;;;;;;16.36;60.39;100009.09;1607376;87;21073;-73
2022/10/01 12:26:19;;;;;;;3.02;2.60;;;;;;;16.38;60.43;100015.09;1607720;87;22008;-73
2022/10/01 12:29:21;;;;;;;9.13;2.70;;;;;;;16.37;60.35;100000.35;1608324;87;21024;-72
2022/10/01 12:32:51;;;;;;;4.58;2.55;;;;;;;16.38;60.32;99998.59;1606466;87;21176;-72
2022/10/01 12:35:47;;;;;;;2.77;2.58;;;;;;;16.41;60.38;99988.00;1607458;87;21273;-75
2022/10/01 12:39:01;;;;;;;5.80;2.62;;;;;;;16.46;60.37;99991.22;1607664;87;21744;-75
2022/10/01 12:42:12;;;;;;;2.90;2.70;;;;;;;16.51;60.36;99990.53;1602594;87;21592;-77
2022/10/01 12:45:33;;;;;;;2.80;2.27;;;;;;;16.52;60.24;99985.70;1609383;87;21092;-78
2022/10/01 12:48:35;;;;;;;2.75;2.47;;;;;;;16.48;60.31;99974.56;1608951;87;21076;-79
2022/10/01 12:51:31;;;;;;;3.12;2.85;;;;;;;16.50;60.37;99972.72;1601550;87;21577;-79
2022/10/01 12:54:33;;;;;;;4.47;3.00;;;;;;;16.48;60.33;99968.04;1607866;87;21649;-79
2022/10/01 12:57:38;;;;;;;5.75;2.85;;;;;;;16.40;60.31;99960.22;1607365;88;21613;-77
2022/10/01 13:00:26;;;;;;;3.67;2.75;;;;;;;16.31;60.22;99957.60;1608372;87;21650;-77
2022/10/01 13:03:48;;;;;;;3.08;2.83;;;;;;;16.20;60.26;99963.35;1608647;87;21118;-77
2022/10/01 13:07:21;;;;;;;4.03;3.02;;;;;;;16.14;60.32;99954.52;1605207;88;21366;-78
2022/10/01 13:10:51;;;;;;;4.22;3.10;;;;;;;16.08;60.32;99946.19;1605252;87;21056;-79
2022/10/01 13:13:37;;;;;;;3.17;2.58;;;;;;;16.04;60.27;99953.78;1605750;88;21155;-77
2022/10/01 13:16:36;;;;;;;4.58;2.58;;;;;;;16.03;60.36;99929.92;1610435;88;21642;-77